sensor_id;sensor_type;location;lat;lon;timestamp;pressure;altitude;pressure_sealevel;temperature;humidity
13734;BME280;43298;52.560;13.508;2024-01-07T00:01:49;100314.06;;;-0.79;100.00
13734;BME280;43298;52.560;13.508;2024-01-07T00:04:18;100304.78;;;-0.81;100.00
13734;BME280;43298;52.560;13.508;2024-01-07T00:06:45;100303.88;;;-0.70;100.00
13734;BME280;43298;52.560;13.508;2024-01-07T00:09:12;100310.66;;;-0.76;100.00
13734;BME280;43298;52.560;13.508;2024-01-07T00:11:39;100316.63;;;-0.89;100.00
13734;BME280;43298;52.560;13.508;2024-01-07T00:14:05;100310.72;;;-0.84;100.00
13734;BME280;43298;52.560;13.508;2024-01-07T00:16:31;100321.69;;;-0.89;100.00
13734;BME280;43298;52.560;13.508;2024-01-07T00:18:56;100320.91;;;-1.03;100.00
13734;BME280;43298;52.560;13.508;2024-01-07T00:21:23;100320.06;;;-0.98;100.00
13734;BME280;43298;52.560;13.508;2024-01-07T00:23:49;100333.56;;;-0.93;100.00
13734;BME280;43298;52.560;13.508;2024-01-07T00:26:15;100336.94;;;-0.98;100.00
13734;BME280;43298;52.560;13.508;2024-01-07T00:28:41;100349.63;;;-0.97;100.00
13734;BME280;43298;52.560;13.508;2024-01-07T00:31:07;100353.84;;;-1.02;100.00
13734;BME280;43298;52.560;13.508;2024-01-07T00:33:34;100369.06;;;-1.02;100.00
13734;BME280;43298;52.560;13.508;2024-01-07T00:36:01;100378.41;;;-1.05;100.00
13734;BME280;43298;52.560;13.508;2024-01-07T00:38:27;100389.38;;;-1.00;100.00
13734;BME280;43298;52.560;13.508;2024-01-07T00:40:53;100397.00;;;-1.06;100.00
13734;BME280;43298;52.560;13.508;2024-01-07T00:43:19;100400.38;;;-1.13;100.00
13734;BME280;43298;52.560;13.508;2024-01-07T00:45:45;100403.75;;;-1.14;100.00
13734;BME280;43298;52.560;13.508;2024-01-07T00:48:11;100402.06;;;-1.14;100.00
13734;BME280;43298;52.560;13.508;2024-01-07T00:50:36;100413.91;;;-1.10;100.00
13734;BME280;43298;52.560;13.508;2024-01-07T00:53:02;100424.91;;;-1.11;100.00
13734;BME280;43298;52.560;13.508;2024-01-07T00:55:28;100430.81;;;-1.16;100.00
13734;BME280;43298;52.560;13.508;2024-01-07T00:57:54;100435.03;;;-1.15;100.00
13734;BME280;43298;52.560;13.508;2024-01-07T01:00:21;100448.59;;;-1.12;100.00
13734;BME280;43298;52.560;13.508;2024-01-07T01:02:47;100462.09;;;-1.14;100.00
13734;BME280;43298;52.560;13.508;2024-01-07T01:05:13;100473.91;;;-1.22;100.00
13734;BME280;43298;52.560;13.508;2024-01-07T01:07:39;100479.84;;;-1.14;100.00
13734;BME280;43298;52.560;13.508;2024-01-07T01:10:05;100479.88;;;-1.17;100.00
13734;BME280;43298;52.560;13.508;2024-01-07T01:12:32;100499.28;;;-1.28;100.00
13734;BME280;43298;52.560;13.508;2024-01-07T01:14:57;100511.97;;;-1.31;100.00
13734;BME280;43298;52.560;13.508;2024-01-07T01:17:23;100511.94;;;-1.34;100.00
13734;BME280;43298;52.560;13.508;2024-01-07T01:19:49;100528.84;;;-1.35;100.00
13734;BME280;43298;52.560;13.508;2024-01-07T01:22:15;100535.59;;;-1.34;100.00
13734;BME280;43298;52.560;13.508;2024-01-07T01:24:40;100540.69;;;-1.32;100.00
13734;BME280;43298;52.560;13.508;2024-01-07T01:27:06;100556.72;;;-1.42;100.00
13734;BME280;43298;52.560;13.508;2024-01-07T01:29:32;100549.13;;;-1.42;100.00
13734;BME280;43298;52.560;13.508;2024-01-07T01:31:58;100564.34;;;-1.42;100.00
13734;BME280;43298;52.560;13.508;2024-01-07T01:34:24;100576.94;;;-1.53;100.00
13734;BME280;43298;52.560;13.508;2024-01-07T01:36:50;100564.28;;;-1.48;100.00
13734;BME280;43298;52.560;13.508;2024-01-07T01:39:16;100568.50;;;-1.58;100.00
13734;BME280;43298;52.560;13.508;2024-01-07T01:41:42;100570.13;;;-1.63;100.00
13734;BME280;43298;52.560;13.508;2024-01-07T01:44:07;100577.75;;;-1.61;100.00
13734;BME280;43298;52.560;13.508;2024-01-07T01:46:33;100579.44;;;-1.65;100.00
13734;BME280;43298;52.560;13.508;2024-01-07T01:48:59;100566.78;;;-1.63;100.00
13734;BME280;43298;52.560;13.508;2024-01-07T01:51:26;100577.72;;;-1.64;100.00
13734;BME280;43298;52.560;13.508;2024-01-07T01:53:52;100587.03;;;-1.66;100.00
13734;BME280;43298;52.560;13.508;2024-01-07T01:56:19;100589.50;;;-1.74;100.00
13734;BME280;43298;52.560;13.508;2024-01-07T01:58:46;100597.09;;;-1.75;100.00
13734;BME280;43298;52.560;13.508;2024-01-07T02:01:13;100579.44;;;-1.65;100.00
13734;BME280;43298;52.560;13.508;2024-01-07T02:03:39;100593.75;;;-1.71;100.00
13734;BME280;43298;52.560;13.508;2024-01-07T02:06:05;100589.50;;;-1.75;100.00
13734;BME280;43298;52.560;13.508;2024-01-07T02:08:31;100590.34;;;-1.78;100.00
13734;BME280;43298;52.560;13.508;2024-01-07T02:10:57;100592.88;;;-1.79;100.00
13734;BME280;43298;52.560;13.508;2024-01-07T02:13:23;100592.91;;;-1.73;100.00
13734;BME280;43298;52.560;13.508;2024-01-07T02:15:49;100594.56;;;-1.77;100.00
13734;BME280;43298;52.560;13.508;2024-01-07T02:18:15;100596.25;;;-1.80;100.00
13734;BME280;43298;52.560;13.508;2024-01-07T02:20:41;100606.31;;;-1.94;100.00
13734;BME280;43298;52.560;13.508;2024-01-07T02:23:06;100614.72;;;-1.96;100.00
13734;BME280;43298;52.560;13.508;2024-01-07T02:25:36;100615.53;;;-2.02;100.00
13734;BME280;43298;52.560;13.508;2024-01-07T02:28:03;100607.09;;;-2.02;100.00
13734;BME280;43298;52.560;13.508;2024-01-07T02:30:29;100621.38;;;-2.09;100.00
13734;BME280;43298;52.560;13.508;2024-01-07T02:32:55;100629.78;;;-2.13;100.00
13734;BME280;43298;52.560;13.508;2024-01-07T02:35:20;100629.78;;;-2.14;100.00
13734;BME280;43298;52.560;13.508;2024-01-07T02:37:46;100628.13;;;-2.12;100.00
13734;BME280;43298;52.560;13.508;2024-01-07T02:40:12;100630.59;;;-2.20;100.00
13734;BME280;43298;52.560;13.508;2024-01-07T02:42:38;100629.75;;;-2.17;100.00
13734;BME280;43298;52.560;13.508;2024-01-07T02:45:04;100636.50;;;-2.19;100.00
13734;BME280;43298;52.560;13.508;2024-01-07T02:47:30;100644.03;;;-2.25;100.00
13734;BME280;43298;52.560;13.508;2024-01-07T02:49:56;100644.06;;;-2.24;100.00
13734;BME280;43298;52.560;13.508;2024-01-07T02:52:22;100644.81;;;-2.34;100.00
13734;BME280;43298;52.560;13.508;2024-01-07T02:54:47;100643.13;;;-2.33;100.00
13734;BME280;43298;52.560;13.508;2024-01-07T02:57:13;100646.47;;;-2.39;100.00
13734;BME280;43298;52.560;13.508;2024-01-07T02:59:39;100644.69;;;-2.49;100.00
13734;BME280;43298;52.560;13.508;2024-01-07T03:02:05;100645.59;;;-2.44;100.00
13734;BME280;43298;52.560;13.508;2024-01-07T03:04:30;100633.75;;;-2.43;100.00
13734;BME280;43298;52.560;13.508;2024-01-07T03:06:56;100640.50;;;-2.45;100.00
13734;BME280;43298;52.560;13.508;2024-01-07T03:09:22;100636.31;;;-2.40;100.00
13734;BME280;43298;52.560;13.508;2024-01-07T03:11:48;100638.84;;;-2.40;100.00
13734;BME280;43298;52.560;13.508;2024-01-07T03:14:14;100642.19;;;-2.44;100.00
13734;BME280;43298;52.560;13.508;2024-01-07T03:16:42;100647.19;;;-2.50;100.00
13734;BME280;43298;52.560;13.508;2024-01-07T03:19:08;100645.53;;;-2.50;100.00
13734;BME280;43298;52.560;13.508;2024-01-07T03:21:34;100644.66;;;-2.50;100.00
13734;BME280;43298;52.560;13.508;2024-01-07T03:23:59;100650.59;;;-2.48;100.00
13734;BME280;43298;52.560;13.508;2024-01-07T03:26:30;100645.44;;;-2.59;100.00
13734;BME280;43298;52.560;13.508;2024-01-07T03:28:58;100658.09;;;-2.57;100.00
13734;BME280;43298;52.560;13.508;2024-01-07T03:31:28;100659.72;;;-2.64;100.00
13734;BME280;43298;52.560;13.508;2024-01-07T03:33:54;100654.75;;;-2.56;100.00
13734;BME280;43298;52.560;13.508;2024-01-07T03:36:20;100660.63;;;-2.59;100.00
13734;BME280;43298;52.560;13.508;2024-01-07T03:38:46;100655.63;;;-2.53;100.00
13734;BME280;43298;52.560;13.508;2024-01-07T03:41:19;100660.72;;;-2.50;100.00
13734;BME280;43298;52.560;13.508;2024-01-07T03:43:49;100675.78;;;-2.60;100.00
13734;BME280;43298;52.560;13.508;2024-01-07T03:46:16;100677.50;;;-2.58;100.00
13734;BME280;43298;52.560;13.508;2024-01-07T03:48:43;100681.72;;;-2.58;100.00
13734;BME280;43298;52.560;13.508;2024-01-07T03:51:09;100690.19;;;-2.53;100.00
13734;BME280;43298;52.560;13.508;2024-01-07T03:53:34;100683.38;;;-2.60;100.00
13734;BME280;43298;52.560;13.508;2024-01-07T03:56:00;100693.47;;;-2.62;100.00
13734;BME280;43298;52.560;13.508;2024-01-07T03:58:26;100694.25;;;-2.67;100.00
13734;BME280;43298;52.560;13.508;2024-01-07T04:00:52;100714.59;;;-2.60;100.00
13734;BME280;43298;52.560;13.508;2024-01-07T04:03:18;100708.66;;;-2.63;100.00
13734;BME280;43298;52.560;13.508;2024-01-07T04:05:43;100713.72;;;-2.60;100.00
13734;BME280;43298;52.560;13.508;2024-01-07T04:08:11;100717.03;;;-2.70;100.00
13734;BME280;43298;52.560;13.508;2024-01-07T04:10:37;100717.06;;;-2.64;100.00
13734;BME280;43298;52.560;13.508;2024-01-07T04:13:04;100734.72;;;-2.70;100.00
13734;BME280;43298;52.560;13.508;2024-01-07T04:15:30;100739.03;;;-2.63;100.00
13734;BME280;43298;52.560;13.508;2024-01-07T04:17:56;100744.13;;;-2.57;100.00
13734;BME280;43298;52.560;13.508;2024-01-07T04:20:22;100746.53;;;-2.69;100.00
13734;BME280;43298;52.560;13.508;2024-01-07T04:22:49;100746.53;;;-2.69;100.00
13734;BME280;43298;52.560;13.508;2024-01-07T04:25:15;100754.16;;;-2.66;100.00
13734;BME280;43298;52.560;13.508;2024-01-07T04:27:40;100754.06;;;-2.75;100.00
13734;BME280;43298;52.560;13.508;2024-01-07T04:30:07;100751.56;;;-2.72;100.00
13734;BME280;43298;52.560;13.508;2024-01-07T04:32:33;100757.44;;;-2.75;100.00
13734;BME280;43298;52.560;13.508;2024-01-07T04:34:58;100763.25;;;-2.82;100.00
13734;BME280;43298;52.560;13.508;2024-01-07T04:37:24;100744.00;;;-2.69;100.00
13734;BME280;43298;52.560;13.508;2024-01-07T04:39:50;100764.22;;;-2.71;100.00
13734;BME280;43298;52.560;13.508;2024-01-07T04:42:17;100764.28;;;-2.68;100.00
13734;BME280;43298;52.560;13.508;2024-01-07T04:44:43;100755.75;;;-2.73;100.00
13734;BME280;43298;52.560;13.508;2024-01-07T04:47:31;100764.97;;;-2.79;100.00
13734;BME280;43298;52.560;13.508;2024-01-07T04:49:57;100758.97;;;-2.87;100.00
13734;BME280;43298;52.560;13.508;2024-01-07T04:52:24;100761.53;;;-2.86;100.00
13734;BME280;43298;52.560;13.508;2024-01-07T04:54:54;100767.34;;;-2.91;100.00
13734;BME280;43298;52.560;13.508;2024-01-07T04:57:20;100753.91;;;-2.89;100.00
13734;BME280;43298;52.560;13.508;2024-01-07T04:59:48;100764.06;;;-2.84;100.00
13734;BME280;43298;52.560;13.508;2024-01-07T05:02:14;100751.59;;;-2.69;100.00
13734;BME280;43298;52.560;13.508;2024-01-07T05:04:40;100760.00;;;-2.72;100.00
13734;BME280;43298;52.560;13.508;2024-01-07T05:07:06;100759.09;;;-2.77;100.00
13734;BME280;43298;52.560;13.508;2024-01-07T05:09:32;100764.28;;;-2.66;100.00
13734;BME280;43298;52.560;13.508;2024-01-07T05:11:59;100764.28;;;-2.66;100.00
13734;BME280;43298;52.560;13.508;2024-01-07T05:14:25;100764.38;;;-2.57;100.00
13734;BME280;43298;52.560;13.508;2024-01-07T05:16:53;100774.53;;;-2.54;100.00
13734;BME280;43298;52.560;13.508;2024-01-07T05:19:20;100778.72;;;-2.59;100.00
13734;BME280;43298;52.560;13.508;2024-01-07T05:21:46;100774.53;;;-2.54;100.00
13734;BME280;43298;52.560;13.508;2024-01-07T05:24:11;100776.28;;;-2.50;100.00
13734;BME280;43298;52.560;13.508;2024-01-07T05:26:43;100785.56;;;-2.48;100.00
13734;BME280;43298;52.560;13.508;2024-01-07T05:29:09;100782.28;;;-2.44;100.00
13734;BME280;43298;52.560;13.508;2024-01-07T05:31:35;100781.34;;;-2.50;100.00
13734;BME280;43298;52.560;13.508;2024-01-07T05:34:01;100781.50;;;-2.38;100.00
13734;BME280;43298;52.560;13.508;2024-01-07T05:36:27;100789.84;;;-2.45;100.00
13734;BME280;43298;52.560;13.508;2024-01-07T05:38:52;100789.00;;;-2.44;100.00
13734;BME280;43298;52.560;13.508;2024-01-07T05:41:18;100784.00;;;-2.40;100.00
13734;BME280;43298;52.560;13.508;2024-01-07T05:43:44;100784.03;;;-2.38;100.00
13734;BME280;43298;52.560;13.508;2024-01-07T05:46:10;100788.16;;;-2.43;100.00
13734;BME280;43298;52.560;13.508;2024-01-07T05:48:49;100787.31;;;-2.45;100.00
13734;BME280;43298;52.560;13.508;2024-01-07T05:51:16;100778.00;;;-2.46;100.00
13734;BME280;43298;52.560;13.508;2024-01-07T05:53:43;100770.44;;;-2.43;100.00
13734;BME280;43298;52.560;13.508;2024-01-07T05:56:09;100780.59;;;-2.42;100.00
13734;BME280;43298;52.560;13.508;2024-01-07T05:58:35;100772.19;;;-2.38;100.00
13734;BME280;43298;52.560;13.508;2024-01-07T06:01:01;100780.66;;;-2.36;100.00
13734;BME280;43298;52.560;13.508;2024-01-07T06:03:27;100785.91;;;-2.19;100.00
13734;BME280;43298;52.560;13.508;2024-01-07T06:05:53;100788.31;;;-2.31;100.00
13734;BME280;43298;52.560;13.508;2024-01-07T06:08:19;100790.84;;;-2.31;100.00
13734;BME280;43298;52.560;13.508;2024-01-07T06:10:44;100788.31;;;-2.28;100.00
13734;BME280;43298;52.560;13.508;2024-01-07T06:13:10;100795.06;;;-2.30;100.00
13734;BME280;43298;52.560;13.508;2024-01-07T06:15:36;100784.97;;;-2.29;100.00
13734;BME280;43298;52.560;13.508;2024-01-07T06:18:02;100788.31;;;-2.28;100.00
13734;BME280;43298;52.560;13.508;2024-01-07T06:20:28;100779.91;;;-2.27;100.00
13734;BME280;43298;52.560;13.508;2024-01-07T06:22:54;100781.56;;;-2.29;100.00
13734;BME280;43298;52.560;13.508;2024-01-07T06:25:19;100788.38;;;-2.25;100.00
13734;BME280;43298;52.560;13.508;2024-01-07T06:27:46;100785.88;;;-2.22;100.00
13734;BME280;43298;52.560;13.508;2024-01-07T06:30:12;100782.56;;;-2.15;100.00
13734;BME280;43298;52.560;13.508;2024-01-07T06:32:39;100792.69;;;-2.15;100.00
13734;BME280;43298;52.560;13.508;2024-01-07T06:35:05;100807.94;;;-2.12;100.00
13734;BME280;43298;52.560;13.508;2024-01-07T06:37:31;100803.66;;;-2.16;100.00
13734;BME280;43298;52.560;13.508;2024-01-07T06:39:57;100801.16;;;-2.15;100.00
13734;BME280;43298;52.560;13.508;2024-01-07T06:42:24;100796.03;;;-2.19;100.00
13734;BME280;43298;52.560;13.508;2024-01-07T06:44:50;100804.50;;;-2.16;100.00
13734;BME280;43298;52.560;13.508;2024-01-07T06:47:16;100795.25;;;-2.14;100.00
13734;BME280;43298;52.560;13.508;2024-01-07T06:49:42;100807.88;;;-2.17;100.00
13734;BME280;43298;52.560;13.508;2024-01-07T06:52:07;100807.06;;;-2.13;100.00
13734;BME280;43298;52.560;13.508;2024-01-07T06:54:33;100817.16;;;-2.19;100.00
13734;BME280;43298;52.560;13.508;2024-01-07T06:56:59;100814.69;;;-2.11;100.00
13734;BME280;43298;52.560;13.508;2024-01-07T06:59:25;100812.97;;;-2.14;100.00
13734;BME280;43298;52.560;13.508;2024-01-07T07:01:51;100816.31;;;-2.18;100.00
13734;BME280;43298;52.560;13.508;2024-01-07T07:04:17;100813.81;;;-2.15;100.00
13734;BME280;43298;52.560;13.508;2024-01-07T07:06:42;100814.72;;;-2.07;100.00
13734;BME280;43298;52.560;13.508;2024-01-07T07:09:09;100814.81;;;-2.01;100.00
13734;BME280;43298;52.560;13.508;2024-01-07T07:11:37;100820.56;;;-2.14;100.00
13734;BME280;43298;52.560;13.508;2024-01-07T07:14:02;100816.41;;;-2.06;100.00
13734;BME280;43298;52.560;13.508;2024-01-07T07:16:28;100823.97;;;-2.09;100.00
13734;BME280;43298;52.560;13.508;2024-01-07T07:18:54;100817.28;;;-2.05;100.00
13734;BME280;43298;52.560;13.508;2024-01-07T07:21:20;100827.44;;;-2.02;100.00
13734;BME280;43298;52.560;13.508;2024-01-07T07:23:46;100830.78;;;-2.05;100.00
13734;BME280;43298;52.560;13.508;2024-01-07T07:26:11;100834.16;;;-2.04;100.00
13734;BME280;43298;52.560;13.508;2024-01-07T07:28:37;100840.13;;;-2.02;100.00
13734;BME280;43298;52.560;13.508;2024-01-07T07:31:03;100842.69;;;-1.99;100.00
13734;BME280;43298;52.560;13.508;2024-01-07T07:33:29;100846.06;;;-1.97;100.00
13734;BME280;43298;52.560;13.508;2024-01-07T07:35:55;100852.81;;;-1.96;100.00
13734;BME280;43298;52.560;13.508;2024-01-07T07:38:20;100860.41;;;-2.01;100.00
13734;BME280;43298;52.560;13.508;2024-01-07T07:40:46;100858.69;;;-2.02;100.00
13734;BME280;43298;52.560;13.508;2024-01-07T07:43:19;100857.06;;;-1.97;100.00
13734;BME280;43298;52.560;13.508;2024-01-07T07:45:47;100858.81;;;-1.91;100.00
13734;BME280;43298;52.560;13.508;2024-01-07T07:48:15;100870.66;;;-1.87;100.00
13734;BME280;43298;52.560;13.508;2024-01-07T07:50:42;100870.75;;;-1.80;100.00
13734;BME280;43298;52.560;13.508;2024-01-07T07:53:08;100895.13;;;-1.88;100.00
13734;BME280;43298;52.560;13.508;2024-01-07T07:55:34;100893.44;;;-1.89;100.00
13734;BME280;43298;52.560;13.508;2024-01-07T07:58:00;100902.75;;;-1.86;100.00
13734;BME280;43298;52.560;13.508;2024-01-07T08:00:26;100904.47;;;-1.87;100.00
13734;BME280;43298;52.560;13.508;2024-01-07T08:02:52;100900.22;;;-1.88;100.00
13734;BME280;43298;52.560;13.508;2024-01-07T08:05:18;100898.63;;;-1.80;100.00
13734;BME280;43298;52.560;13.508;2024-01-07T08:07:43;100900.34;;;-1.77;100.00
13734;BME280;43298;52.560;13.508;2024-01-07T08:10:09;100902.84;;;-1.79;100.00
13734;BME280;43298;52.560;13.508;2024-01-07T08:12:36;100907.09;;;-1.76;100.00
13734;BME280;43298;52.560;13.508;2024-01-07T08:15:02;100913.84;;;-1.75;100.00
13734;BME280;43298;52.560;13.508;2024-01-07T08:17:28;100914.75;;;-1.72;100.00
13734;BME280;43298;52.560;13.508;2024-01-07T08:19:54;100914.81;;;-1.64;100.00
13734;BME280;43298;52.560;13.508;2024-01-07T08:22:23;100902.13;;;-1.66;100.00
13734;BME280;43298;52.560;13.508;2024-01-07T08:24:49;100906.41;;;-1.62;100.00
13734;BME280;43298;52.560;13.508;2024-01-07T08:27:15;100906.38;;;-1.65;100.00
13734;BME280;43298;52.560;13.508;2024-01-07T08:29:44;100897.97;;;-1.61;100.00
13734;BME280;43298;52.560;13.508;2024-01-07T08:32:10;100885.31;;;-1.59;100.00
13734;BME280;43298;52.560;13.508;2024-01-07T08:34:35;100882.81;;;-1.55;100.00
13734;BME280;43298;52.560;13.508;2024-01-07T08:37:01;100883.66;;;-1.54;100.00
13734;BME280;43298;52.560;13.508;2024-01-07T08:39:27;100872.78;;;-1.44;100.00
13734;BME280;43298;52.560;13.508;2024-01-07T08:41:55;100872.81;;;-1.40;100.00
13734;BME280;43298;52.560;13.508;2024-01-07T08:44:20;100874.53;;;-1.37;100.00
13734;BME280;43298;52.560;13.508;2024-01-07T08:46:46;100879.59;;;-1.36;100.00
13734;BME280;43298;52.560;13.508;2024-01-07T08:49:12;100881.34;;;-1.30;100.00
13734;BME280;43298;52.560;13.508;2024-01-07T08:51:39;100872.03;;;-1.31;100.00
13734;BME280;43298;52.560;13.508;2024-01-07T08:54:05;100876.31;;;-1.26;100.00
13734;BME280;43298;52.560;13.508;2024-01-07T08:56:31;100873.75;;;-1.30;100.00
13734;BME280;43298;52.560;13.508;2024-01-07T08:58:56;100872.94;;;-1.23;100.00
13734;BME280;43298;52.560;13.508;2024-01-07T09:01:23;100866.19;;;-1.21;100.00
13734;BME280;43298;52.560;13.508;2024-01-07T09:03:50;100868.78;;;-1.15;100.00
13734;BME280;43298;52.560;13.508;2024-01-07T09:06:15;100857.78;;;-1.13;100.00
13734;BME280;43298;52.560;13.508;2024-01-07T09:08:41;100862.06;;;-1.07;100.00
13734;BME280;43298;52.560;13.508;2024-01-07T09:11:08;100862.06;;;-1.12;100.00
13734;BME280;43298;52.560;13.508;2024-01-07T09:13:37;100853.66;;;-1.03;100.00
13734;BME280;43298;52.560;13.508;2024-01-07T09:16:03;100851.94;;;-1.04;100.00
13734;BME280;43298;52.560;13.508;2024-01-07T09:18:29;100847.75;;;-1.02;100.00
13734;BME280;43298;52.560;13.508;2024-01-07T09:20:56;100846.91;;;-1.01;100.00
13734;BME280;43298;52.560;13.508;2024-01-07T09:23:22;100840.16;;;-0.99;100.00
13734;BME280;43298;52.560;13.508;2024-01-07T09:25:48;100841.81;;;-1.01;100.00
13734;BME280;43298;52.560;13.508;2024-01-07T09:28:15;100840.13;;;-1.04;100.00
13734;BME280;43298;52.560;13.508;2024-01-07T09:30:40;100849.41;;;-1.03;100.00
13734;BME280;43298;52.560;13.508;2024-01-07T09:33:06;100830.81;;;-1.00;100.00
13734;BME280;43298;52.560;13.508;2024-01-07T09:35:32;100823.25;;;-0.94;100.00
13734;BME280;43298;52.560;13.508;2024-01-07T09:37:58;100827.47;;;-0.98;100.00
13734;BME280;43298;52.560;13.508;2024-01-07T09:40:24;100819.03;;;-0.97;100.00
13734;BME280;43298;52.560;13.508;2024-01-07T09:42:50;100820.69;;;-1.03;100.00
13734;BME280;43298;52.560;13.508;2024-01-07T09:45:18;100815.59;;;-0.99;100.00
13734;BME280;43298;52.560;13.508;2024-01-07T09:47:45;100817.31;;;-0.99;100.00
13734;BME280;43298;52.560;13.508;2024-01-07T09:50:12;100813.03;;;-1.06;100.00
13734;BME280;43298;52.560;13.508;2024-01-07T09:52:43;100812.25;;;-0.99;100.00
13734;BME280;43298;52.560;13.508;2024-01-07T09:55:09;100814.78;;;-0.98;100.00
13734;BME280;43298;52.560;13.508;2024-01-07T09:57:40;100811.41;;;-0.98;100.00
13734;BME280;43298;52.560;13.508;2024-01-07T10:00:10;100817.28;;;-1.02;100.00
13734;BME280;43298;52.560;13.508;2024-01-07T10:02:37;100807.16;;;-0.99;100.00
13734;BME280;43298;52.560;13.508;2024-01-07T10:05:03;100805.47;;;-1.03;100.00
13734;BME280;43298;52.560;13.508;2024-01-07T10:07:29;100802.09;;;-1.01;100.00
13734;BME280;43298;52.560;13.508;2024-01-07T10:09:55;100791.09;;;-0.98;100.00
13734;BME280;43298;52.560;13.508;2024-01-07T10:12:24;100780.16;;;-0.90;100.00
13734;BME280;43298;52.560;13.508;2024-01-07T10:14:50;100775.91;;;-0.89;100.00
13734;BME280;43298;52.560;13.508;2024-01-07T10:17:17;100774.19;;;-0.95;100.00
13734;BME280;43298;52.560;13.508;2024-01-07T10:19:46;100766.59;;;-0.92;100.00
13734;BME280;43298;52.560;13.508;2024-01-07T10:22:13;100751.41;;;-0.86;100.00
13734;BME280;43298;52.560;13.508;2024-01-07T10:24:41;100745.47;;;-0.85;100.00
13734;BME280;43298;52.560;13.508;2024-01-07T10:27:08;100737.88;;;-0.82;100.00
13734;BME280;43298;52.560;13.508;2024-01-07T10:29:34;100742.91;;;-0.88;100.00
13734;BME280;43298;52.560;13.508;2024-01-07T10:32:00;100733.69;;;-0.80;100.00
13734;BME280;43298;52.560;13.508;2024-01-07T10:34:33;100741.25;;;-0.87;100.00
13734;BME280;43298;52.560;13.508;2024-01-07T10:37:01;100733.69;;;-0.78;100.00
13734;BME280;43298;52.560;13.508;2024-01-07T10:39:28;100733.69;;;-0.78;100.00
13734;BME280;43298;52.560;13.508;2024-01-07T10:41:55;100730.31;;;-0.71;100.00
13734;BME280;43298;52.560;13.508;2024-01-07T10:44:32;100715.94;;;-0.68;100.00
13734;BME280;43298;52.560;13.508;2024-01-07T10:46:59;100715.06;;;-0.70;100.00
13734;BME280;43298;52.560;13.508;2024-01-07T10:49:27;100712.56;;;-0.62;100.00
13734;BME280;43298;52.560;13.508;2024-01-07T10:52:06;100703.28;;;-0.60;100.00
13734;BME280;43298;52.560;13.508;2024-01-07T10:54:35;100717.63;;;-0.65;100.00
13734;BME280;43298;52.560;13.508;2024-01-07T10:57:48;100705.81;;;-0.63;100.00
13734;BME280;43298;52.560;13.508;2024-01-07T11:00:16;100706.63;;;-0.61;100.00
13734;BME280;43298;52.560;13.508;2024-01-07T11:06:01;100709.22;;;-0.51;100.00
13734;BME280;43298;52.560;13.508;2024-01-07T11:08:55;100706.69;;;-0.46;100.00
13734;BME280;43298;52.560;13.508;2024-01-07T11:11:35;100701.59;;;-0.49;100.00
13734;BME280;43298;52.560;13.508;2024-01-07T11:14:02;100691.44;;;-0.43;100.00
13734;BME280;43298;52.560;13.508;2024-01-07T11:16:43;100688.06;;;-0.45;100.00
13734;BME280;43298;52.560;13.508;2024-01-07T11:19:13;100687.22;;;-0.40;100.00
13734;BME280;43298;52.560;13.508;2024-01-07T11:21:39;100687.22;;;-0.41;100.00
13734;BME280;43298;52.560;13.508;2024-01-07T11:24:05;100686.38;;;-0.42;100.00
13734;BME280;43298;52.560;13.508;2024-01-07T11:26:31;100677.09;;;-0.37;100.00
13734;BME280;43298;52.560;13.508;2024-01-07T11:28:58;100674.53;;;-0.44;100.00
13734;BME280;43298;52.560;13.508;2024-01-07T11:34:05;100662.69;;;-0.24;100.00
13734;BME280;43298;52.560;13.508;2024-01-07T11:36:37;100663.53;;;-0.31;100.00
13734;BME280;43298;52.560;13.508;2024-01-07T11:39:04;100661.00;;;-0.21;100.00
13734;BME280;43298;52.560;13.508;2024-01-07T11:41:34;100647.47;;;-0.21;100.00
13734;BME280;43298;52.560;13.508;2024-01-07T11:44:01;100653.38;;;-0.18;100.00
13734;BME280;43298;52.560;13.508;2024-01-07T11:46:29;100646.59;;;-0.23;100.00
13734;BME280;43298;52.560;13.508;2024-01-07T11:48:57;100644.06;;;-0.26;100.00
13734;BME280;43298;52.560;13.508;2024-01-07T11:51:31;100644.91;;;-0.30;100.00
13734;BME280;43298;52.560;13.508;2024-01-07T11:53:58;100634.72;;;-0.38;100.00
13734;BME280;43298;52.560;13.508;2024-01-07T11:56:27;100635.59;;;-0.40;100.00
13734;BME280;43298;52.560;13.508;2024-01-07T11:58:54;100627.13;;;-0.39;100.00
13734;BME280;43298;52.560;13.508;2024-01-07T12:01:21;100617.81;;;-0.37;100.00
13734;BME280;43298;52.560;13.508;2024-01-07T12:03:47;100622.91;;;-0.33;100.00
13734;BME280;43298;52.560;13.508;2024-01-07T12:06:13;100611.88;;;-0.35;100.00
13734;BME280;43298;52.560;13.508;2024-01-07T12:08:41;100608.50;;;-0.34;100.00
13734;BME280;43298;52.560;13.508;2024-01-07T12:11:08;100608.50;;;-0.32;100.00
13734;BME280;43298;52.560;13.508;2024-01-07T12:13:36;100603.41;;;-0.31;100.00
13734;BME280;43298;52.560;13.508;2024-01-07T12:16:04;100602.59;;;-0.28;100.00
13734;BME280;43298;52.560;13.508;2024-01-07T12:18:30;100596.66;;;-0.27;100.00
13734;BME280;43298;52.560;13.508;2024-01-07T12:20:57;100589.88;;;-0.28;100.00
13734;BME280;43298;52.560;13.508;2024-01-07T12:23:26;100594.09;;;-0.29;100.00
13734;BME280;43298;52.560;13.508;2024-01-07T12:25:53;100580.56;;;-0.28;100.00
13734;BME280;43298;52.560;13.508;2024-01-07T12:28:19;100589.03;;;-0.26;100.00
13734;BME280;43298;52.560;13.508;2024-01-07T12:30:47;100591.56;;;-0.26;100.00
13734;BME280;43298;52.560;13.508;2024-01-07T12:33:19;100574.63;;;-0.19;100.00
13734;BME280;43298;52.560;13.508;2024-01-07T12:35:47;100578.03;;;-0.14;100.00